createdAt,value
2023-02-07T00:07:02.295Z,92.6
2023-02-07T00:27:02.302Z,92.8
2023-02-07T00:47:02.311Z,92.9
2023-02-07T01:07:02.308Z,92.5
2023-02-07T01:27:02.322Z,92.7
2023-02-07T01:47:02.318Z,92.4
2023-02-07T02:07:02.306Z,92.8
2023-02-07T02:27:02.356Z,92.5
2023-02-07T02:47:02.431Z,92.7
2023-02-07T03:07:02.330Z,92.0
2023-02-07T03:27:02.310Z,92.0
2023-02-07T03:47:02.338Z,93.8
2023-02-07T04:07:02.338Z,92.9
2023-02-07T04:27:02.359Z,92.3
2023-02-07T04:47:02.342Z,93.7
2023-02-07T05:07:02.335Z,93.7
2023-02-07T05:27:02.358Z,93.3
2023-02-07T05:47:02.345Z,93.1
2023-02-07T06:07:02.380Z,93.8
2023-02-07T06:27:02.350Z,93.1
2023-02-07T06:47:02.398Z,93.2
2023-02-07T07:07:02.425Z,93.3
2023-02-07T07:27:02.486Z,94.1
2023-02-07T07:47:02.548Z,94.3
2023-02-07T08:07:02.375Z,94.9
2023-02-07T08:27:02.379Z,95.4
2023-02-07T08:47:02.435Z,96.2
2023-02-07T09:07:02.447Z,96.6
2023-02-07T09:27:02.540Z,96.8
2023-02-07T09:47:02.547Z,96.9
2023-02-07T10:07:02.555Z,97.1
2023-02-07T10:27:02.385Z,96.5
2023-02-07T10:47:02.579Z,95.7
2023-02-07T11:07:02.396Z,93.6
2023-02-07T11:27:02.575Z,91.7
2023-02-07T11:47:02.574Z,88.9
2023-02-07T12:07:02.560Z,86.7
2023-02-07T12:27:02.552Z,88.3
2023-02-07T12:47:02.397Z,87.9
2023-02-07T13:07:02.374Z,86.4
2023-02-07T13:27:02.525Z,88.3
2023-02-07T13:47:02.537Z,88.0
2023-02-07T14:07:02.555Z,89.1
2023-02-07T14:27:02.583Z,86.3
2023-02-07T14:47:02.365Z,85.8
2023-02-07T15:07:02.530Z,85.4
2023-02-07T15:27:02.669Z,85.9
2023-02-07T15:47:02.545Z,87.0
2023-02-07T16:07:02.517Z,86.9
2023-02-07T16:27:02.362Z,86.5
2023-02-07T16:47:02.473Z,88.4
2023-02-07T17:07:02.359Z,87.6
2023-02-07T17:27:02.580Z,88.4
2023-02-07T17:47:02.561Z,85.2
2023-02-07T18:07:02.605Z,88.7
2023-02-07T18:27:02.531Z,87.7
2023-02-07T18:47:02.512Z,88.5
2023-02-07T19:07:02.370Z,86.4
2023-02-07T19:27:02.490Z,87.2
2023-02-07T19:47:02.506Z,87.2
2023-02-07T20:07:02.619Z,88.3
2023-02-07T20:27:02.609Z,90.3
2023-02-07T20:47:02.435Z,91.1
2023-02-07T21:07:02.464Z,90.7
2023-02-07T21:27:02.366Z,87.7
2023-02-07T21:47:02.452Z,90.2
2023-02-07T22:07:02.536Z,90.9
2023-02-07T22:27:02.509Z,92.1
2023-02-07T22:47:02.501Z,90.7
2023-02-07T23:07:02.368Z,90.1
2023-02-07T23:27:02.379Z,88.9
2023-02-07T23:47:02.538Z,89.6
